createdAt,value
2023-01-29T00:00:20.215Z,100391.59
2023-01-29T00:00:52.464Z,100398.78
2023-01-29T00:01:24.539Z,100392.16
2023-01-29T00:01:56.742Z,100388.09
2023-01-29T00:02:28.674Z,100385.34
2023-01-29T00:03:00.640Z,100388.09
2023-01-29T00:03:33.535Z,100395.16
2023-01-29T00:04:05.521Z,100385.81
2023-01-29T00:04:37.408Z,100397.66
2023-01-29T00:05:26.123Z,100391.78
2023-01-29T00:05:59.895Z,100391.59
2023-01-29T00:06:32.521Z,100391.03
2023-01-29T00:07:04.417Z,100393.19
2023-01-29T00:07:36.337Z,100390.44
2023-01-29T00:08:08.237Z,100390.81
2023-01-29T00:08:40.125Z,100394.38
2023-01-29T00:09:13.554Z,100391.00
2023-01-29T00:09:45.439Z,100392.53
2023-01-29T00:10:18.120Z,100391.03
2023-01-29T00:10:50.207Z,100397.81
2023-01-29T00:11:24.097Z,100397.06
2023-01-29T00:11:56.077Z,100396.00
2023-01-29T00:12:28.129Z,100401.84
2023-01-29T00:13:00.109Z,100404.72
2023-01-29T00:13:32.519Z,100410.25
2023-01-29T00:14:05.762Z,100394.19
2023-01-29T00:14:37.627Z,100401.97
2023-01-29T00:15:09.652Z,100401.19
2023-01-29T00:15:41.577Z,100402.81
2023-01-29T00:16:13.629Z,100401.91
2023-01-29T00:16:45.882Z,100402.06
2023-01-29T00:17:17.883Z,100405.28
2023-01-29T00:17:49.894Z,100396.41
2023-01-29T00:18:22.078Z,100401.34
2023-01-29T00:18:53.974Z,100397.75
2023-01-29T00:19:25.865Z,100406.06
2023-01-29T00:19:57.724Z,100406.72
2023-01-29T00:20:30.304Z,100405.25
2023-01-29T00:21:02.305Z,100401.19
2023-01-29T00:21:34.695Z,100401.56
2023-01-29T00:22:06.957Z,100407.09
2023-01-29T00:22:39.005Z,100405.75
2023-01-29T00:23:10.924Z,100406.16
2023-01-29T00:23:43.696Z,100398.97
2023-01-29T00:24:15.743Z,100398.84
2023-01-29T00:24:47.658Z,100402.09
2023-01-29T00:25:19.543Z,100410.31
2023-01-29T00:25:51.441Z,100401.03
2023-01-29T00:26:23.528Z,100399.97
2023-01-29T00:26:55.471Z,100411.09
2023-01-29T00:27:27.676Z,100399.66
2023-01-29T00:27:59.670Z,100398.84
2023-01-29T00:28:31.950Z,100398.44
2023-01-29T00:29:03.840Z,100412.09
2023-01-29T00:29:35.829Z,100408.53
2023-01-29T00:30:16.591Z,100402.63
2023-01-29T00:30:48.799Z,100406.97
2023-01-29T00:31:23.763Z,100403.75
2023-01-29T00:31:55.882Z,100404.56
2023-01-29T00:32:28.125Z,100403.37
2023-01-29T00:32:59.993Z,100409.34
2023-01-29T00:33:32.548Z,100406.72
2023-01-29T00:34:04.435Z,100416.56
2023-01-29T00:34:36.342Z,100407.47
2023-01-29T00:35:09.241Z,100416.56
2023-01-29T00:35:42.043Z,100414.66
2023-01-29T00:36:15.630Z,100407.72
2023-01-29T00:36:47.538Z,100413.69
2023-01-29T00:37:19.406Z,100412.09
2023-01-29T00:37:52.353Z,100409.69
2023-01-29T00:38:24.214Z,100411.72
2023-01-29T00:38:58.884Z,100410.22
2023-01-29T00:39:47.395Z,100405.56
2023-01-29T00:40:20.080Z,100412.94
2023-01-29T00:41:10.630Z,100412.50
2023-01-29T00:42:01.324Z,100410.91
2023-01-29T00:42:51.739Z,100415.72
2023-01-29T00:43:43.374Z,100415.91
2023-01-29T00:44:38.343Z,100414.38
2023-01-29T00:45:11.728Z,100416.84
2023-01-29T00:45:43.670Z,100417.91
2023-01-29T00:46:16.044Z,100408.50
2023-01-29T00:46:48.134Z,100412.84
2023-01-29T00:47:35.852Z,100416.66
2023-01-29T00:48:07.864Z,100415.19
2023-01-29T00:48:40.060Z,100410.63
2023-01-29T00:49:12.260Z,100409.81
2023-01-29T00:49:44.133Z,100416.28
2023-01-29T00:50:16.775Z,100412.91
2023-01-29T00:50:48.994Z,100408.75
2023-01-29T00:51:20.924Z,100413.09
2023-01-29T00:52:11.609Z,100415.28
2023-01-29T00:52:43.641Z,100414.72
2023-01-29T00:53:15.510Z,100417.28
2023-01-29T00:53:48.033Z,100417.88
2023-01-29T00:54:19.927Z,100423.16
2023-01-29T00:54:53.066Z,100418.19
2023-01-29T00:55:25.003Z,100422.25
2023-01-29T00:55:56.915Z,100415.75
2023-01-29T00:56:30.363Z,100423.59
2023-01-29T00:57:03.936Z,100429.69
2023-01-29T00:57:38.320Z,100424.41
2023-01-29T00:58:10.492Z,100420.66
2023-01-29T00:58:42.374Z,100420.37
2023-01-29T00:59:14.697Z,100424.16
2023-01-29T00:59:46.752Z,100427.69
2023-01-29T01:00:19.504Z,100426.50
2023-01-29T01:00:51.870Z,100424.03
2023-01-29T01:01:42.833Z,100421.59
2023-01-29T01:02:34.963Z,100425.38
2023-01-29T01:03:10.747Z,100421.34
2023-01-29T01:03:42.884Z,100422.84
2023-01-29T01:04:15.384Z,100419.56
2023-01-29T01:04:47.430Z,100428.13
2023-01-29T01:05:19.783Z,100417.25
2023-01-29T01:06:02.113Z,100424.31
2023-01-29T01:06:34.202Z,100423.37
2023-01-29T01:07:06.945Z,100419.69
2023-01-29T01:07:38.854Z,100418.38
2023-01-29T01:08:31.154Z,100417.81
2023-01-29T01:09:22.067Z,100420.25
2023-01-29T01:10:13.246Z,100418.34
2023-01-29T01:10:45.223Z,100427.19
2023-01-29T01:11:17.671Z,100432.47
2023-01-29T01:11:49.838Z,100422.94
2023-01-29T01:12:22.315Z,100421.34
2023-01-29T01:13:03.141Z,100425.41
2023-01-29T01:13:35.191Z,100418.62
2023-01-29T01:14:07.234Z,100422.69
2023-01-29T01:14:43.097Z,100417.00
2023-01-29T01:15:15.366Z,100411.72
2023-01-29T01:15:47.388Z,100419.19
2023-01-29T01:16:20.692Z,100421.88
2023-01-29T01:16:52.850Z,100416.19
2023-01-29T01:17:25.124Z,100415.50
2023-01-29T01:17:59.342Z,100417.00
2023-01-29T01:18:31.758Z,100417.25
2023-01-29T01:19:04.925Z,100420.22
2023-01-29T01:19:37.147Z,100420.78
2023-01-29T01:20:10.133Z,100420.37
2023-01-29T01:20:42.614Z,100424.31
2023-01-29T01:21:14.537Z,100419.44
2023-01-29T01:21:48.353Z,100416.72
2023-01-29T01:22:20.599Z,100419.03
2023-01-29T01:22:54.681Z,100419.56
2023-01-29T01:23:28.011Z,100415.25
2023-01-29T01:24:00.207Z,100419.69
2023-01-29T01:24:32.709Z,100417.66
2023-01-29T01:25:05.125Z,100421.72
2023-01-29T01:25:37.044Z,100423.22
2023-01-29T01:26:10.967Z,100421.22
2023-01-29T01:26:43.351Z,100418.62
2023-01-29T01:27:15.351Z,100421.88
2023-01-29T01:27:47.722Z,100418.91
2023-01-29T01:28:19.611Z,100421.75
2023-01-29T01:28:52.014Z,100422.97
2023-01-29T01:29:24.586Z,100424.88
2023-01-29T01:29:56.571Z,100423.22
2023-01-29T01:30:28.825Z,100422.69
2023-01-29T01:31:11.822Z,100427.69
2023-01-29T01:31:44.071Z,100425.94
2023-01-29T01:32:16.053Z,100432.84
2023-01-29T01:32:49.282Z,100433.00
2023-01-29T01:33:21.475Z,100432.44
2023-01-29T01:33:55.618Z,100437.88
2023-01-29T01:34:27.578Z,100436.78
2023-01-29T01:34:59.454Z,100434.72
2023-01-29T01:35:31.396Z,100437.81
2023-01-29T01:36:03.569Z,100439.97
2023-01-29T01:36:35.463Z,100437.16
2023-01-29T01:37:07.891Z,100432.97
2023-01-29T01:37:39.824Z,100432.97
2023-01-29T01:38:11.943Z,100437.00
2023-01-29T01:38:46.616Z,100432.12
2023-01-29T01:39:18.482Z,100435.41
2023-01-29T01:39:50.569Z,100431.34
2023-01-29T01:40:25.077Z,100438.13
2023-01-29T01:40:56.983Z,100432.69
2023-01-29T01:41:31.274Z,100429.16
2023-01-29T01:42:03.209Z,100437.31
2023-01-29T01:42:35.378Z,100442.19
2023-01-29T01:43:10.029Z,100433.50
2023-01-29T01:43:50.669Z,100435.41
2023-01-29T01:44:53.520Z,100429.75
2023-01-29T01:45:36.333Z,100433.28
2023-01-29T01:46:09.513Z,100428.78
2023-01-29T01:46:41.453Z,100437.69
2023-01-29T01:47:14.107Z,100438.06
2023-01-29T01:47:51.812Z,100442.28
2023-01-29T01:48:27.315Z,100430.19
2023-01-29T01:49:15.870Z,100439.41
2023-01-29T01:49:48.339Z,100438.06
2023-01-29T01:50:46.667Z,100436.19
2023-01-29T01:51:20.733Z,100440.28
2023-01-29T01:51:53.141Z,100434.03
2023-01-29T01:52:25.148Z,100427.25
2023-01-29T01:53:02.783Z,100437.56
2023-01-29T01:53:43.341Z,100444.31
2023-01-29T01:54:28.721Z,100447.00
2023-01-29T01:55:01.100Z,100444.72
2023-01-29T01:55:35.526Z,100443.34
2023-01-29T01:56:12.798Z,100444.84
2023-01-29T01:56:50.160Z,100444.31
2023-01-29T01:57:25.423Z,100448.78
2023-01-29T01:58:05.862Z,100442.00
2023-01-29T01:58:43.674Z,100440.91
2023-01-29T01:59:19.085Z,100444.84
2023-01-29T02:00:10.131Z,100439.44
2023-01-29T02:00:45.327Z,100442.12
2023-01-29T02:01:19.137Z,100437.81
2023-01-29T02:01:54.352Z,100441.06
2023-01-29T02:02:46.277Z,100439.84
2023-01-29T02:03:38.514Z,100441.59
2023-01-29T02:04:36.017Z,100441.69
2023-01-29T02:05:27.663Z,100433.00
2023-01-29T02:06:19.020Z,100438.19
2023-01-29T02:07:12.635Z,100433.34
2023-01-29T02:08:06.292Z,100430.25
2023-01-29T02:09:14.287Z,100435.00
2023-01-29T02:09:56.945Z,100437.81
2023-01-29T02:10:37.738Z,100438.66
2023-01-29T02:11:09.866Z,100438.66
2023-01-29T02:11:41.801Z,100448.50
2023-01-29T02:12:16.104Z,100445.25
2023-01-29T02:12:48.027Z,100441.28
2023-01-29T02:13:21.805Z,100445.66
2023-01-29T02:13:54.044Z,100445.41
2023-01-29T02:14:32.043Z,100448.41
2023-01-29T02:15:07.076Z,100442.31
2023-01-29T02:15:41.911Z,100436.47
2023-01-29T02:16:13.829Z,100444.88
2023-01-29T02:16:46.558Z,100444.06
2023-01-29T02:17:20.727Z,100449.09
2023-01-29T02:17:52.669Z,100451.41
2023-01-29T02:18:24.663Z,100443.25
2023-01-29T02:18:56.766Z,100451.94
2023-01-29T02:19:55.915Z,100447.88
2023-01-29T02:20:33.498Z,100448.69
2023-01-29T02:21:52.659Z,100451.50
2023-01-29T02:22:36.918Z,100451.13
2023-01-29T02:23:17.026Z,100448.13
2023-01-29T02:24:08.754Z,100454.34
2023-01-29T02:25:17.671Z,100451.63
2023-01-29T02:26:01.567Z,100454.50
2023-01-29T02:27:04.652Z,100452.88
2023-01-29T02:28:14.380Z,100448.69
2023-01-29T02:28:53.458Z,100453.44
2023-01-29T02:29:54.719Z,100458.19
2023-01-29T02:30:36.410Z,100459.53
2023-01-29T02:31:29.110Z,100456.69
2023-01-29T02:32:06.976Z,100456.66
2023-01-29T02:32:58.636Z,100466.56
2023-01-29T02:33:42.876Z,100470.06
2023-01-29T02:34:14.748Z,100461.97
2023-01-29T02:35:09.837Z,100463.59
2023-01-29T02:35:50.467Z,100465.38
2023-01-29T02:36:51.436Z,100468.91
2023-01-29T02:37:34.962Z,100459.25
2023-01-29T02:38:09.839Z,100460.59
2023-01-29T02:38:56.300Z,100463.41
2023-01-29T02:39:46.982Z,100467.31
2023-01-29T02:40:25.762Z,100462.69
2023-01-29T02:41:12.912Z,100468.84
2023-01-29T02:41:56.826Z,100463.66
2023-01-29T02:42:35.915Z,100469.00
2023-01-29T02:43:28.164Z,100469.94
2023-01-29T02:44:06.446Z,100470.84
2023-01-29T02:44:49.968Z,100466.12
2023-01-29T02:45:35.367Z,100468.88
2023-01-29T02:46:16.923Z,100469.75
2023-01-29T02:47:03.688Z,100468.97
2023-01-29T02:47:41.022Z,100464.75
2023-01-29T02:48:18.425Z,100476.69
2023-01-29T02:49:01.861Z,100465.47
2023-01-29T02:49:44.154Z,100474.06
2023-01-29T02:50:45.336Z,100474.44
2023-01-29T02:51:29.995Z,100479.56
2023-01-29T02:52:23.229Z,100472.41
2023-01-29T02:53:09.168Z,100480.16
2023-01-29T02:54:01.786Z,100483.97
2023-01-29T02:54:55.578Z,100482.38
2023-01-29T02:55:33.153Z,100487.03
2023-01-29T02:56:19.461Z,100481.22
2023-01-29T02:56:56.456Z,100476.19
2023-01-29T02:57:37.395Z,100480.50
2023-01-29T02:58:20.298Z,100476.97
2023-01-29T02:59:01.973Z,100485.09
2023-01-29T02:59:46.099Z,100480.91
2023-01-29T03:00:22.760Z,100474.94
2023-01-29T03:00:59.309Z,100476.97
2023-01-29T03:01:48.275Z,100483.12
2023-01-29T03:02:35.247Z,100477.81
2023-01-29T03:03:20.925Z,100484.19
2023-01-29T03:04:01.005Z,100474.44
2023-01-29T03:04:42.553Z,100477.47
2023-01-29T03:05:25.505Z,100479.38
2023-01-29T03:06:22.234Z,100480.59
2023-01-29T03:07:03.370Z,100489.28
2023-01-29T03:07:47.034Z,100478.91
2023-01-29T03:08:36.925Z,100489.47
2023-01-29T03:09:22.946Z,100495.97
2023-01-29T03:09:56.790Z,100488.44
2023-01-29T03:10:42.204Z,100487.22
2023-01-29T03:11:15.846Z,100485.91
2023-01-29T03:11:54.698Z,100484.78
2023-01-29T03:12:35.835Z,100490.25
2023-01-29T03:13:15.253Z,100484.28
2023-01-29T03:14:00.102Z,100488.84
2023-01-29T03:14:56.534Z,100493.19
2023-01-29T03:15:39.022Z,100488.91
2023-01-29T03:16:16.490Z,100490.94
2023-01-29T03:16:51.797Z,100488.09
2023-01-29T03:17:29.777Z,100489.59
2023-01-29T03:18:11.765Z,100485.53
2023-01-29T03:18:50.903Z,100485.94
2023-01-29T03:19:36.215Z,100488.13
2023-01-29T03:20:16.556Z,100486.81
2023-01-29T03:20:58.513Z,100491.25
2023-01-29T03:21:51.353Z,100491.09
2023-01-29T03:22:24.243Z,100487.66
2023-01-29T03:23:01.816Z,100489.13
2023-01-29T03:23:55.807Z,100495.72
2023-01-29T03:25:09.170Z,100493.66
2023-01-29T03:26:02.760Z,100495.97
2023-01-29T03:26:54.014Z,100488.69
2023-01-29T03:28:11.109Z,100491.22
2023-01-29T03:29:05.005Z,100491.53
2023-01-29T03:29:58.773Z,100493.12
2023-01-29T03:30:55.375Z,100491.59
2023-01-29T03:31:48.663Z,100493.28
2023-01-29T03:32:24.711Z,100496.50
2023-01-29T03:32:59.154Z,100493.09
2023-01-29T03:33:36.117Z,100496.06
2023-01-29T03:34:16.330Z,100494.94
2023-01-29T03:34:54.160Z,100501.22
2023-01-29T03:35:36.515Z,100498.37
2023-01-29T03:36:14.958Z,100502.72
2023-01-29T03:36:58.750Z,100505.69
2023-01-29T03:37:43.080Z,100502.94
2023-01-29T03:38:16.528Z,100508.34
2023-01-29T03:38:48.820Z,100506.78
2023-01-29T03:39:20.853Z,100506.22
2023-01-29T03:39:54.635Z,100502.88
2023-01-29T03:40:28.623Z,100503.09
2023-01-29T03:41:12.199Z,100500.63
2023-01-29T03:41:58.869Z,100495.81
2023-01-29T03:42:53.199Z,100502.78
2023-01-29T03:43:33.035Z,100500.25
2023-01-29T03:44:24.987Z,100497.84
2023-01-29T03:45:08.614Z,100501.66
2023-01-29T03:45:56.005Z,100511.16
2023-01-29T03:46:49.072Z,100504.59
2023-01-29T03:47:30.657Z,100506.22
2023-01-29T03:48:33.222Z,100503.44
2023-01-29T03:49:08.511Z,100501.44
2023-01-29T03:49:54.101Z,100502.94
2023-01-29T03:50:44.951Z,100504.66
2023-01-29T03:51:23.542Z,100507.91
2023-01-29T03:52:35.092Z,100509.25
2023-01-29T03:53:18.664Z,100510.38
2023-01-29T03:54:21.147Z,100500.66
2023-01-29T03:55:11.789Z,100506.34
2023-01-29T03:55:59.692Z,100505.53
2023-01-29T03:56:41.817Z,100509.03
2023-01-29T03:57:38.540Z,100510.72
2023-01-29T03:58:40.500Z,100512.03
2023-01-29T03:59:31.847Z,100507.19
2023-01-29T04:00:11.455Z,100502.00
2023-01-29T04:01:11.195Z,100507.53
2023-01-29T04:01:56.352Z,100504.59
2023-01-29T04:02:42.693Z,100507.72
2023-01-29T04:03:40.156Z,100503.25
2023-01-29T04:04:23.360Z,100496.91
2023-01-29T04:05:05.857Z,100503.69
2023-01-29T04:05:58.637Z,100501.69
2023-01-29T04:06:35.993Z,100502.63
2023-01-29T04:07:17.688Z,100502.88
2023-01-29T04:07:57.151Z,100499.38
2023-01-29T04:08:31.471Z,100503.16
2023-01-29T04:09:12.519Z,100501.78
2023-01-29T04:10:02.150Z,100502.63
2023-01-29T04:10:41.436Z,100493.25
2023-01-29T04:11:18.506Z,100499.03
2023-01-29T04:11:57.445Z,100504.63
2023-01-29T04:12:39.191Z,100500.97
2023-01-29T04:13:14.181Z,100489.88
2023-01-29T04:13:47.235Z,100497.59
2023-01-29T04:14:21.437Z,100499.34
2023-01-29T04:14:57.158Z,100500.16
2023-01-29T04:15:34.222Z,100493.22
2023-01-29T04:16:10.442Z,100496.88
2023-01-29T04:16:55.030Z,100498.75
2023-01-29T04:17:34.701Z,100489.94
2023-01-29T04:18:09.931Z,100493.63
2023-01-29T04:18:48.341Z,100493.94
2023-01-29T04:19:21.042Z,100491.09
2023-01-29T04:19:53.869Z,100488.72
2023-01-29T04:20:26.057Z,100492.28
2023-01-29T04:20:59.788Z,100496.47
2023-01-29T04:21:33.043Z,100489.53
2023-01-29T04:22:15.416Z,100496.31
2023-01-29T04:22:49.997Z,100492.28
2023-01-29T04:23:26.384Z,100494.63
2023-01-29T04:23:58.887Z,100502.75
2023-01-29T04:24:31.538Z,100490.84
2023-01-29T04:25:16.080Z,100492.62
2023-01-29T04:25:58.456Z,100490.06
2023-01-29T04:26:46.832Z,100491.81
2023-01-29T04:27:29.262Z,100502.66
2023-01-29T04:28:11.420Z,100501.28
2023-01-29T04:28:47.531Z,100491.28
2023-01-29T04:29:51.407Z,100496.03
2023-01-29T04:30:33.506Z,100494.94
2023-01-29T04:31:10.819Z,100493.47
2023-01-29T04:32:21.827Z,100497.41
2023-01-29T04:33:02.235Z,100484.37
2023-01-29T04:33:46.456Z,100487.50
2023-01-29T04:35:04.346Z,100490.06
2023-01-29T04:36:27.396Z,100490.16
2023-01-29T04:37:16.867Z,100495.28
2023-01-29T04:38:22.045Z,100499.66
2023-01-29T04:39:12.047Z,100498.56
2023-01-29T04:39:53.396Z,100494.84
2023-01-29T04:40:46.969Z,100494.66
2023-01-29T04:41:21.298Z,100494.09
2023-01-29T04:42:09.487Z,100500.03
2023-01-29T04:42:50.203Z,100500.69
2023-01-29T04:43:41.605Z,100505.03
2023-01-29T04:44:22.934Z,100498.50
2023-01-29T04:45:20.391Z,100509.69
2023-01-29T04:46:17.540Z,100498.53
2023-01-29T04:47:10.758Z,100506.50
2023-01-29T04:48:04.381Z,100510.44
2023-01-29T04:48:43.869Z,100504.34
2023-01-29T04:49:20.016Z,100510.59
2023-01-29T04:49:57.599Z,100507.25
2023-01-29T04:50:40.243Z,100510.25
2023-01-29T04:51:30.523Z,100506.44
2023-01-29T04:52:34.433Z,100504.97
2023-01-29T04:53:18.750Z,100505.66
2023-01-29T04:54:04.928Z,100513.62
2023-01-29T04:54:51.938Z,100510.50
2023-01-29T04:55:42.913Z,100505.78
2023-01-29T04:56:51.437Z,100508.88
2023-01-29T04:57:33.967Z,100510.34
2023-01-29T04:58:14.414Z,100510.50
2023-01-29T04:58:59.568Z,100519.31
2023-01-29T04:59:36.883Z,100511.16
2023-01-29T05:00:19.743Z,100515.13
2023-01-29T05:00:54.421Z,100516.38
2023-01-29T05:01:30.270Z,100512.69
2023-01-29T05:02:04.356Z,100511.47
2023-01-29T05:02:41.731Z,100510.28
2023-01-29T05:03:15.414Z,100506.47
2023-01-29T05:03:51.122Z,100513.28
2023-01-29T05:04:24.630Z,100510.81
2023-01-29T05:04:58.790Z,100507.28
2023-01-29T05:05:30.943Z,100503.38
2023-01-29T05:06:04.217Z,100507.03
2023-01-29T05:06:38.144Z,100498.88
2023-01-29T05:07:14.049Z,100497.00
2023-01-29T05:07:47.705Z,100505.78
2023-01-29T05:08:23.074Z,100503.38
2023-01-29T05:08:56.850Z,100500.50
2023-01-29T05:09:29.408Z,100505.66
2023-01-29T05:10:01.444Z,100500.78
2023-01-29T05:10:35.161Z,100512.69
2023-01-29T05:11:07.495Z,100499.69
2023-01-29T05:11:40.031Z,100513.50
2023-01-29T05:12:14.494Z,100510.94
2023-01-29T05:12:53.007Z,100509.72
2023-01-29T05:13:27.148Z,100513.78
2023-01-29T05:14:02.427Z,100508.75
2023-01-29T05:14:35.568Z,100510.94
2023-01-29T05:15:16.173Z,100514.56
2023-01-29T05:15:54.184Z,100512.28
2023-01-29T05:16:42.064Z,100512.00
2023-01-29T05:17:19.588Z,100512.59
2023-01-29T05:17:53.801Z,100508.34
2023-01-29T05:18:25.756Z,100501.03
2023-01-29T05:18:57.648Z,100512.69
2023-01-29T05:19:29.544Z,100506.75
2023-01-29T05:20:01.479Z,100500.91
2023-01-29T05:20:36.523Z,100500.50
2023-01-29T05:21:10.057Z,100507.44
2023-01-29T05:21:45.588Z,100499.97
2023-01-29T05:22:22.651Z,100503.50
2023-01-29T05:22:54.693Z,100504.59
2023-01-29T05:23:27.006Z,100512.97
2023-01-29T05:24:12.389Z,100517.03
2023-01-29T05:24:44.927Z,100509.19
2023-01-29T05:25:26.502Z,100509.72
2023-01-29T05:25:58.507Z,100509.19
2023-01-29T05:26:49.116Z,100514.75
2023-01-29T05:27:48.044Z,100508.09
2023-01-29T05:28:19.919Z,100514.47
2023-01-29T05:28:51.835Z,100507.09
2023-01-29T05:29:23.905Z,100506.41
2023-01-29T05:29:57.581Z,100505.88
2023-01-29T05:30:29.782Z,100508.88
2023-01-29T05:31:01.746Z,100499.66
2023-01-29T05:31:33.779Z,100501.72
2023-01-29T05:32:05.914Z,100502.50
2023-01-29T05:32:39.737Z,100503.19
2023-01-29T05:33:20.679Z,100497.63
2023-01-29T05:33:52.623Z,100495.06
2023-01-29T05:34:24.615Z,100505.91
2023-01-29T05:34:56.525Z,100500.72
2023-01-29T05:35:29.537Z,100499.22
2023-01-29T05:36:01.492Z,100497.47
2023-01-29T05:36:33.393Z,100500.88
2023-01-29T05:37:05.378Z,100502.88
2023-01-29T05:37:37.462Z,100494.34
2023-01-29T05:38:10.027Z,100497.38
2023-01-29T05:38:41.890Z,100497.50
2023-01-29T05:39:13.819Z,100498.59
2023-01-29T05:39:45.720Z,100493.47
2023-01-29T05:40:18.102Z,100494.41
2023-01-29T05:40:50.459Z,100500.25
2023-01-29T05:41:22.380Z,100497.41
2023-01-29T05:41:54.355Z,100500.12
2023-01-29T05:42:26.245Z,100495.38
2023-01-29T05:42:58.263Z,100496.84
2023-01-29T05:43:30.500Z,100502.69
2023-01-29T05:44:02.455Z,100498.34
2023-01-29T05:44:34.342Z,100501.31
2023-01-29T05:45:06.876Z,100499.97
2023-01-29T05:45:38.907Z,100498.88
2023-01-29T05:46:10.825Z,100497.78
2023-01-29T05:46:43.849Z,100500.53
2023-01-29T05:47:19.749Z,100491.84
2023-01-29T05:47:55.223Z,100497.66
2023-01-29T05:48:29.062Z,100496.19
2023-01-29T05:49:01.294Z,100493.47
2023-01-29T05:49:33.249Z,100490.34
2023-01-29T05:50:06.421Z,100492.62
2023-01-29T05:50:38.333Z,100488.84
2023-01-29T05:51:10.342Z,100488.31
2023-01-29T05:51:42.235Z,100494.25
2023-01-29T05:52:14.141Z,100498.34
2023-01-29T05:52:46.067Z,100496.97
2023-01-29T05:53:18.132Z,100503.22
2023-01-29T05:53:50.426Z,100497.53
2023-01-29T05:54:22.841Z,100496.97
2023-01-29T05:54:54.846Z,100507.81
2023-01-29T05:55:29.548Z,100497.41
2023-01-29T05:56:02.792Z,100501.47
2023-01-29T05:56:34.670Z,100502.28
2023-01-29T05:57:06.530Z,100502.69
2023-01-29T05:57:40.604Z,100503.50
2023-01-29T05:58:13.381Z,100504.31
2023-01-29T05:58:45.313Z,100495.22
2023-01-29T05:59:17.208Z,100497.13
2023-01-29T05:59:49.559Z,100502.94
2023-01-29T06:00:22.340Z,100502.81
2023-01-29T06:00:54.712Z,100505.53
2023-01-29T06:01:26.940Z,100502.56
2023-01-29T06:01:58.905Z,100502.00
2023-01-29T06:02:31.711Z,100503.22
2023-01-29T06:03:03.724Z,100497.66
2023-01-29T06:03:35.687Z,100503.22
2023-01-29T06:04:07.586Z,100496.44
2023-01-29T06:04:39.475Z,100498.88
2023-01-29T06:05:11.353Z,100502.16
2023-01-29T06:05:43.262Z,100502.41
2023-01-29T06:06:15.932Z,100503.62
2023-01-29T06:06:47.838Z,100511.34
2023-01-29T06:07:19.895Z,100508.63
2023-01-29T06:07:51.943Z,100503.47
2023-01-29T06:08:23.825Z,100515.25
2023-01-29T06:08:56.329Z,100500.78
2023-01-29T06:09:28.229Z,100503.22
2023-01-29T06:10:00.191Z,100512.31
2023-01-29T06:10:32.079Z,100507.03
2023-01-29T06:11:04.721Z,100513.50
2023-01-29T06:11:36.998Z,100509.31
2023-01-29T06:12:09.792Z,100510.69
2023-01-29T06:12:42.666Z,100517.59
2023-01-29T06:13:14.583Z,100514.59
2023-01-29T06:13:46.526Z,100511.50
2023-01-29T06:14:18.442Z,100512.84
2023-01-29T06:14:50.793Z,100520.06
2023-01-29T06:15:22.823Z,100507.97
2023-01-29T06:15:54.765Z,100515.44
2023-01-29T06:16:26.854Z,100516.00
2023-01-29T06:16:59.464Z,100520.06
2023-01-29T06:17:31.355Z,100513.53
2023-01-29T06:18:03.295Z,100521.13
2023-01-29T06:18:36.585Z,100521.25
2023-01-29T06:19:08.473Z,100513.81
2023-01-29T06:19:40.432Z,100520.16
2023-01-29T06:20:13.656Z,100523.41
2023-01-29T06:20:45.590Z,100527.50
2023-01-29T06:21:19.940Z,100522.22
2023-01-29T06:21:52.071Z,100524.41
2023-01-29T06:22:24.298Z,100528.59
2023-01-29T06:22:56.175Z,100533.34
2023-01-29T06:23:28.071Z,100531.47
2023-01-29T06:24:00.004Z,100530.22
2023-01-29T06:24:32.890Z,100539.44
2023-01-29T06:25:05.342Z,100532.53
2023-01-29T06:25:37.245Z,100538.91
2023-01-29T06:26:12.192Z,100536.75
2023-01-29T06:26:44.489Z,100533.06
2023-01-29T06:27:16.401Z,100535.53
2023-01-29T06:27:51.368Z,100531.47
2023-01-29T06:28:23.237Z,100538.50
2023-01-29T06:28:55.227Z,100538.22
2023-01-29T06:29:27.166Z,100542.00
2023-01-29T06:29:59.048Z,100537.94
2023-01-29T06:30:31.945Z,100545.28
2023-01-29T06:31:23.358Z,100551.53
2023-01-29T06:31:57.711Z,100551.53
2023-01-29T06:32:29.752Z,100556.97
2023-01-29T06:33:02.774Z,100549.91
2023-01-29T06:33:35.046Z,100559.53
2023-01-29T06:34:07.961Z,100558.03
2023-01-29T06:34:39.900Z,100557.06
2023-01-29T06:35:11.866Z,100557.47
2023-01-29T06:35:43.753Z,100558.44
2023-01-29T06:36:15.834Z,100564.00
2023-01-29T06:36:47.707Z,100565.38
2023-01-29T06:37:19.704Z,100560.62
2023-01-29T06:37:51.664Z,100558.84
2023-01-29T06:38:24.472Z,100565.34
2023-01-29T06:38:56.385Z,100561.69
2023-01-29T06:39:28.269Z,100562.22
2023-01-29T06:40:00.184Z,100562.09
2023-01-29T06:40:32.114Z,100562.63
2023-01-29T06:41:12.319Z,100565.06
2023-01-29T06:41:45.531Z,100572.37
2023-01-29T06:42:17.483Z,100564.50
2023-01-29T06:42:49.391Z,100565.28
2023-01-29T06:43:22.195Z,100568.66
2023-01-29T06:43:54.404Z,100569.06
2023-01-29T06:44:26.522Z,100569.66
2023-01-29T06:44:58.430Z,100564.09
2023-01-29T06:45:30.418Z,100569.97
2023-01-29T06:46:02.470Z,100566.56
2023-01-29T06:46:34.775Z,100572.69
2023-01-29T06:47:06.710Z,100570.47
2023-01-29T06:47:38.639Z,100571.28
2023-01-29T06:48:10.532Z,100570.19
2023-01-29T06:48:43.061Z,100571.31
2023-01-29T06:49:15.427Z,100571.59
2023-01-29T06:49:47.339Z,100573.09
2023-01-29T06:50:19.529Z,100576.06
2023-01-29T06:50:51.993Z,100576.06
2023-01-29T06:51:24.613Z,100580.50
2023-01-29T06:51:56.521Z,100577.81
2023-01-29T06:52:29.142Z,100573.84
2023-01-29T06:53:01.026Z,100580.47
2023-01-29T06:53:34.641Z,100579.13
2023-01-29T06:54:08.350Z,100574.12
2023-01-29T06:54:40.716Z,100575.50
2023-01-29T06:55:12.779Z,100575.91
2023-01-29T06:55:51.650Z,100573.50
2023-01-29T06:56:24.441Z,100572.69
2023-01-29T06:56:56.451Z,100569.94
2023-01-29T06:57:30.135Z,100573.91
2023-01-29T06:58:09.755Z,100570.78
2023-01-29T06:58:43.555Z,100572.25
2023-01-29T06:59:15.597Z,100574.97
2023-01-29T06:59:47.905Z,100570.19
2023-01-29T07:00:20.548Z,100570.06
2023-01-29T07:00:52.729Z,100572.53
2023-01-29T07:01:35.711Z,100566.69
2023-01-29T07:02:07.872Z,100571.06
2023-01-29T07:02:39.813Z,100567.94
2023-01-29T07:03:12.274Z,100568.47
2023-01-29T07:03:44.488Z,100569.69
2023-01-29T07:04:16.475Z,100569.41
2023-01-29T07:04:48.719Z,100565.09
2023-01-29T07:05:20.643Z,100562.66
2023-01-29T07:05:53.846Z,100561.00
2023-01-29T07:06:29.210Z,100570.22
2023-01-29T07:07:01.208Z,100568.91
2023-01-29T07:07:35.862Z,100567.81
2023-01-29T07:08:09.564Z,100566.16
2023-01-29T07:08:41.574Z,100559.66
2023-01-29T07:09:16.332Z,100565.06
2023-01-29T07:09:48.693Z,100558.31
2023-01-29T07:10:21.510Z,100563.72
2023-01-29T07:10:53.500Z,100558.03
2023-01-29T07:11:25.574Z,100556.78